Time;durP1;ratioP1;P1;durP2;ratioP2;P2;SDS_P1;SDS_P2;PMS_P1;PMS_P2;Temp;Humidity;BMP_temperature;BMP_pressure;BME280_temperature;BME280_humidity;BME280_pressure;Samples;Min_cycle;Max_cycle;Signal;HPM_P1;HPM_P2
2021/12/05 00:23:40;;;;;;;10.45;7.22;;;;;;;13.10;66.52;100911.53;144992;604;6002;-92
2021/12/05 00:26:10;;;;;;;8.88;6.85;;;;;;;13.09;66.26;100912.38;144992;604;6004;-89
2021/12/05 00:31:49;;;;;;;8.05;6.45;;;;;;;13.09;66.30;100914.13;144992;616;6002;-89
2021/12/05 00:45:50;;;;;;;8.73;5.68;;;;;;;13.01;66.24;100914.84;144992;564;6002;-90
2021/12/05 01:06:28;;;;;;;8.27;5.43;;;;;;;13.00;66.12;100907.84;144992;619;6002;-89
2021/12/05 01:12:04;;;;;;;10.55;6.22;;;;;;;13.06;65.54;100897.56;144992;609;6002;-92
2021/12/05 01:14:24;;;;;;;8.27;5.68;;;;;;;13.08;65.39;100897.59;144992;571;6004;-88
2021/12/05 01:16:51;;;;;;;10.10;6.30;;;;;;;13.12;65.04;100901.16;144992;575;6004;-90
2021/12/05 01:19:22;;;;;;;10.32;5.90;;;;;;;13.07;64.88;100894.13;144992;564;6004;-89
2021/12/05 01:21:53;;;;;;;11.65;4.70;;;;;;;12.97;65.16;100902.56;144992;589;6004;-88
2021/12/05 01:30:08;;;;;;;5.85;2.60;;;;;;;12.92;65.31;100898.97;144992;610;6004;-88
2021/12/05 01:38:18;;;;;;;3.17;2.33;;;;;;;13.00;65.25;100893.94;144992;635;6004;-90
2021/12/05 01:40:59;;;;;;;2.47;1.95;;;;;;;13.03;64.73;100896.62;144992;585;6004;-94
2021/12/05 02:09:35;;;;;;;9.48;5.45;;;;;;;13.22;63.56;100871.84;144992;563;6002;-80
2021/12/05 02:15:38;;;;;;;6.68;4.78;;;;;;;13.21;63.10;100862.25;144997;584;6000;-88
2021/12/05 02:40:35;;;;;;;6.93;4.82;;;;;;;12.99;63.43;100835.72;144992;582;6002;-88
2021/12/05 02:43:10;;;;;;;7.40;5.28;;;;;;;12.97;63.28;100827.00;144992;614;6002;-89
2021/12/05 02:45:41;;;;;;;7.47;4.87;;;;;;;12.97;63.22;100826.13;144992;589;6002;-88
2021/12/05 02:48:08;;;;;;;8.90;5.35;;;;;;;12.97;63.26;100842.62;144992;605;6002;-90
2021/12/05 02:50:38;;;;;;;7.18;4.65;;;;;;;12.97;63.47;100842.62;144992;593;6002;-90
2021/12/05 02:53:19;;;;;;;6.12;3.90;;;;;;;12.97;63.40;100850.44;144991;634;6002;-90
2021/12/05 02:55:49;;;;;;;6.43;3.40;;;;;;;12.93;63.27;100848.59;144992;600;6002;-88
2021/12/05 03:01:20;;;;;;;4.55;2.55;;;;;;;12.87;63.08;100838.09;144992;580;6004;-91
2021/12/05 03:03:48;;;;;;;6.05;3.30;;;;;;;12.87;63.02;100846.78;144992;578;6004;-91
2021/12/05 03:06:21;;;;;;;6.70;3.53;;;;;;;12.89;63.34;100852.88;144992;574;6004;-90
2021/12/05 03:08:53;;;;;;;5.43;3.53;;;;;;;12.87;63.07;100851.97;144992;592;6004;-91
2021/12/05 03:11:21;;;;;;;4.05;3.37;;;;;;;12.88;62.94;100845.03;144992;611;6004;-88
2021/12/05 03:13:48;;;;;;;5.82;3.97;;;;;;;12.86;62.95;100839.78;144992;581;6004;-90
2021/12/05 03:16:18;;;;;;;6.40;4.50;;;;;;;12.86;62.98;100850.22;144992;629;6004;-90
2021/12/05 03:18:45;;;;;;;6.03;5.07;;;;;;;12.86;62.95;100858.03;144992;604;6004;-90
2021/12/05 03:21:13;;;;;;;6.78;5.12;;;;;;;12.84;63.19;100864.06;144992;615;6004;-91
2021/12/05 03:23:42;;;;;;;6.10;4.87;;;;;;;12.80;63.45;100865.69;144992;615;6004;-89
2021/12/05 03:26:12;;;;;;;6.45;5.15;;;;;;;12.79;63.47;100861.34;144992;580;6004;-88
2021/12/05 03:28:49;;;;;;;7.93;5.80;;;;;;;12.66;64.10;100847.16;144992;568;6004;-88
2021/12/05 03:31:23;;;;;;;6.62;4.70;;;;;;;12.74;63.82;100856.88;144992;602;6004;-90
2021/12/05 03:33:49;;;;;;;5.28;4.37;;;;;;;12.74;63.92;100849.06;144992;608;6004;-90
2021/12/05 03:36:18;;;;;;;5.80;4.07;;;;;;;12.74;63.96;100860.34;144992;614;6004;-90
2021/12/05 03:38:45;;;;;;;5.65;3.72;;;;;;;12.76;63.82;100873.41;144992;588;6004;-90
2021/12/05 03:41:13;;;;;;;6.37;3.45;;;;;;;12.78;63.86;100879.53;144992;638;6004;-91
2021/12/05 03:43:54;;;;;;;6.10;2.85;;;;;;;12.74;63.53;100875.09;144992;606;6004;-81
2021/12/05 03:46:46;;;;;;;;;;;;;;;;;;;;;
2021/12/05 03:49:36;;;;;;;5.12;2.60;;;;;;;12.70;63.50;100871.56;144992;574;6004;-81
2021/12/05 03:52:12;;;;;;;5.43;2.42;;;;;;;12.61;63.24;100859.16;144991;564;6000;-91
2021/12/05 03:54:40;;;;;;;6.05;2.60;;;;;;;12.63;63.70;100856.59;144992;565;6002;-91
2021/12/05 03:57:24;;;;;;;;;;;;;;;;;;;;;
2021/12/05 03:59:55;;;;;;;3.15;1.30;;;;;;;12.43;64.26;100863.97;144992;620;6004;-89
2021/12/05 04:02:22;;;;;;;2.72;1.80;;;;;;;12.40;64.28;100866.47;144992;592;6004;-90
2021/12/05 04:04:50;;;;;;;4.65;1.87;;;;;;;11.90;66.22;100870.41;144992;622;6004;-89
2021/12/05 04:07:17;;;;;;;2.53;1.70;;;;;;;11.60;67.28;100871.31;144992;589;6004;-90
2021/12/05 04:09:46;;;;;;;2.92;2.10;;;;;;;11.92;66.22;100878.28;144992;607;6004;-91
2021/12/05 04:12:15;;;;;;;3.60;2.20;;;;;;;11.90;66.41;100880.81;144992;575;6004;-92
2021/12/05 04:14:44;;;;;;;3.45;1.98;;;;;;;12.09;65.59;100883.91;144991;578;6000;-90
2021/12/05 04:17:12;;;;;;;2.83;1.90;;;;;;;12.23;65.47;100898.16;144992;622;6002;-90
2021/12/05 04:19:40;;;;;;;2.62;1.92;;;;;;;12.32;65.19;100897.53;144992;661;6002;-88
2021/12/05 04:22:09;;;;;;;2.95;2.40;;;;;;;12.36;64.88;100899.38;144992;629;6002;-92
2021/12/05 04:24:37;;;;;;;3.37;2.10;;;;;;;12.44;65.03;100891.72;144992;582;6002;-89
2021/12/05 04:27:04;;;;;;;5.65;2.92;;;;;;;12.51;64.77;100898.88;144992;597;6002;-89
2021/12/05 04:29:33;;;;;;;2.90;2.40;;;;;;;12.56;64.69;100912.00;144992;601;6002;-91
2021/12/05 04:32:01;;;;;;;3.62;2.62;;;;;;;12.61;64.90;100907.78;144992;610;6002;-90
2021/12/05 04:34:27;;;;;;;4.00;2.80;;;;;;;12.48;65.36;100909.22;144992;631;6002;-89
2021/12/05 04:36:58;;;;;;;3.00;2.70;;;;;;;12.60;65.10;100921.63;144991;576;6002;-90
2021/12/05 04:39:28;;;;;;;3.72;2.90;;;;;;;12.66;64.81;100919.19;144992;581;6002;-89
2021/12/05 04:41:56;;;;;;;5.07;3.10;;;;;;;12.73;64.62;100926.31;144992;641;6002;-86
2021/12/05 04:44:27;;;;;;;5.37;3.35;;;;;;;12.76;64.65;100918.59;144992;613;6002;-89
2021/12/05 04:46:58;;;;;;;5.07;3.60;;;;;;;12.74;65.04;100912.44;144992;633;6002;-90
2021/12/05 04:49:26;;;;;;;5.60;3.85;;;;;;;12.80;64.81;100911.72;144992;641;6002;-92
2021/12/05 04:51:53;;;;;;;5.00;3.70;;;;;;;12.72;64.64;100914.13;144992;596;6002;-90
2021/12/05 04:54:20;;;;;;;5.75;3.80;;;;;;;12.78;64.81;100914.28;144992;587;6002;-90
2021/12/05 04:56:48;;;;;;;5.93;3.90;;;;;;;12.76;64.59;100913.38;144992;583;6002;-88
2021/12/05 04:59:18;;;;;;;6.43;3.80;;;;;;;12.75;64.55;100908.13;144992;641;6002;-90
2021/12/05 05:01:48;;;;;;;5.45;3.58;;;;;;;12.75;64.36;100911.59;144992;572;6002;-88
2021/12/05 05:04:22;;;;;;;6.87;3.20;;;;;;;12.72;64.11;100910.66;144992;602;6002;-88
2021/12/05 05:06:48;;;;;;;4.30;3.12;;;;;;;12.55;64.33;100908.53;144992;583;6002;-88
2021/12/05 05:09:15;;;;;;;4.93;2.53;;;;;;;12.44;64.72;100913.47;144992;623;6002;-88
2021/12/05 05:11:42;;;;;;;3.08;2.20;;;;;;;12.13;65.44;100917.00;144992;631;6002;-88
2021/12/05 05:14:10;;;;;;;4.90;2.47;;;;;;;12.36;65.13;100915.00;144992;590;6002;-89
2021/12/05 05:16:36;;;;;;;5.10;2.40;;;;;;;12.34;65.07;100907.16;144992;577;6002;-89
2021/12/05 05:19:04;;;;;;;3.35;2.17;;;;;;;12.40;65.02;100916.81;144992;606;6002;-89
2021/12/05 05:21:49;;;;;;;2.70;2.40;;;;;;;12.39;64.76;100912.47;144991;584;6002;-91
2021/12/05 05:25:02;;;;;;;3.92;2.53;;;;;;;12.40;64.87;100922.03;144992;587;6002;-88
2021/12/05 05:27:46;;;;;;;3.40;2.45;;;;;;;12.42;64.76;100924.66;144992;616;6004;-90
2021/12/05 05:39:35;;;;;;;6.30;3.00;;;;;;;12.51;64.61;100940.53;144992;608;6002;-88
2021/12/05 05:41:54;;;;;;;5.50;3.80;;;;;;;12.53;64.40;100964.88;144992;580;6002;-89
2021/12/05 05:44:38;;;;;;;6.95;4.10;;;;;;;12.54;64.26;100966.66;144992;646;6004;-88
2021/12/05 05:47:12;;;;;;;7.47;4.12;;;;;;;12.54;64.23;100966.66;144992;602;6005;-88
2021/12/05 05:52:32;;;;;;;8.13;5.57;;;;;;;12.59;63.91;100974.59;144992;586;6002;-89
2021/12/05 05:55:00;;;;;;;9.55;5.43;;;;;;;12.60;63.87;100972.03;144992;586;6003;-91
2021/12/05 05:57:33;;;;;;;8.73;5.65;;;;;;;12.62;63.70;100972.06;144992;649;6002;-90
2021/12/05 06:00:15;;;;;;;8.45;6.22;;;;;;;12.66;63.73;100977.41;144992;592;6002;-89
2021/12/05 06:05:29;;;;;;;7.90;5.53;;;;;;;12.87;63.05;100977.03;144992;585;6004;-91
2021/12/05 06:07:55;;;;;;;7.25;5.40;;;;;;;13.05;62.83;100983.53;144991;593;6000;-91
2021/12/05 06:10:25;;;;;;;7.65;5.57;;;;;;;13.15;62.68;100975.06;144992;687;6002;-89
2021/12/05 06:12:52;;;;;;;11.82;5.85;;;;;;;13.34;62.36;100984.22;144992;646;6002;-89
2021/12/05 06:15:20;;;;;;;10.38;6.10;;;;;;;13.48;62.44;101001.94;144992;620;6002;-88
2021/12/05 06:17:47;;;;;;;10.65;7.45;;;;;;;13.63;61.93;101011.81;144992;595;6002;-90
2021/12/05 06:20:16;;;;;;;10.30;6.78;;;;;;;13.92;61.48;101013.31;144993;575;6002;-88
2021/12/05 06:22:48;;;;;;;10.93;7.00;;;;;;;14.12;61.28;101011.09;144993;587;6002;-91
2021/12/05 06:25:22;;;;;;;10.77;7.62;;;;;;;14.23;61.02;101015.66;144993;580;6002;-89
2021/12/05 06:27:51;;;;;;;10.00;7.85;;;;;;;14.38;60.89;101028.12;144993;584;6002;-89
2021/12/05 06:30:36;;;;;;;11.93;7.85;;;;;;;14.41;60.76;101026.47;144993;569;6002;-90
2021/12/05 06:41:59;;;;;;;10.68;6.43;;;;;;;15.37;60.52;101022.91;144993;614;6000;-89
2021/12/05 06:47:12;;;;;;;8.35;6.20;;;;;;;16.12;59.47;101015.19;144993;781;6000;-89
2021/12/05 06:49:45;;;;;;;9.00;5.50;;;;;;;16.44;59.06;101014.66;144993;671;6002;-89
2021/12/05 06:52:14;;;;;;;10.60;5.07;;;;;;;16.77;58.42;101021.97;144992;569;6002;-89
2021/12/05 06:54:41;;;;;;;6.97;4.68;;;;;;;17.03;57.66;101029.22;144992;574;6002;-87
2021/12/05 06:57:08;;;;;;;5.78;3.97;;;;;;;17.27;57.22;101028.50;144992;610;6002;-89
2021/12/05 06:59:38;;;;;;;4.78;3.00;;;;;;;17.33;56.52;101033.81;144992;615;6002;-88
2021/12/05 07:02:06;;;;;;;6.07;2.87;;;;;;;16.99;56.69;101030.94;144992;579;6003;-89
2021/12/05 07:07:29;;;;;;;3.50;3.00;;;;;;;16.67;56.37;101034.13;144997;584;6004;-89
2021/12/05 07:09:55;;;;;;;6.95;3.20;;;;;;;16.71;57.02;101029.78;144992;594;6002;-91
2021/12/05 07:21:07;;;;;;;7.62;6.18;;;;;;;17.66;56.60;101028.78;144992;605;6004;-87
2021/12/05 07:40:30;;;;;;;5.72;4.80;;;;;;;19.17;54.47;101016.06;144992;616;6004;-86
2021/12/05 07:43:04;;;;;;;6.93;5.55;;;;;;;19.31;54.01;101002.84;144992;593;6004;-89
2021/12/05 07:45:46;;;;;;;8.65;5.55;;;;;;;19.36;51.75;100995.84;144992;573;6004;-90
2021/12/05 07:48:19;;;;;;;6.43;5.82;;;;;;;19.55;53.26;100997.53;144992;644;6004;-89
2021/12/05 07:51:08;;;;;;;7.75;6.95;;;;;;;19.68;53.06;100997.50;144992;617;6004;-88
2021/12/05 07:56:38;;;;;;;11.30;7.90;;;;;;;19.94;52.15;100992.16;144992;582;6002;-88
2021/12/05 07:59:20;;;;;;;10.50;8.00;;;;;;;20.03;51.89;100986.00;144992;596;6002;-89
2021/12/05 08:15:40;;;;;;;11.00;9.73;;;;;;;20.53;50.05;100987.41;144992;614;6002;-89
2021/12/05 08:18:07;;;;;;;12.68;8.88;;;;;;;20.56;50.16;100997.94;144992;590;6002;-91
2021/12/05 08:20:37;;;;;;;13.05;10.00;;;;;;;20.63;50.05;100998.78;144992;590;6002;-88
2021/12/05 08:23:13;;;;;;;15.82;12.77;;;;;;;20.69;50.01;100992.63;144992;637;6002;-90
2021/12/05 08:25:43;;;;;;;16.25;12.50;;;;;;;20.82;49.27;101015.38;144992;563;6002;-89
2021/12/05 08:28:33;;;;;;;15.15;12.60;;;;;;;20.90;49.20;101016.19;144992;628;6002;-88
2021/12/05 08:34:06;;;;;;;16.62;12.77;;;;;;;21.05;48.51;101019.59;144992;568;6004;-87
2021/12/05 09:24:38;;;;;;;19.50;15.25;;;;;;;21.62;47.59;101019.94;144992;580;6002;-87
2021/12/05 10:06:40;;;;;;;8.23;6.30;;;;;;;21.24;47.34;100983.31;144992;567;6004;-90
2021/12/05 10:09:23;;;;;;;9.38;5.95;;;;;;;21.26;47.79;100965.72;144992;722;6004;-88
2021/12/05 10:12:32;;;;;;;6.50;5.35;;;;;;;21.19;47.58;100967.56;144992;608;6004;-89
2021/12/05 10:36:06;;;;;;;8.60;6.95;;;;;;;20.65;48.66;100912.66;144992;565;6002;-90
2021/12/05 10:38:50;;;;;;;8.93;6.55;;;;;;;20.41;47.51;100914.56;144992;606;6002;-88
2021/12/05 10:44:18;;;;;;;11.63;8.35;;;;;;;20.83;47.97;100907.19;144992;574;6005;-90
2021/12/05 10:46:48;;;;;;;10.70;7.85;;;;;;;20.87;48.05;100907.16;144992;642;6004;-88
2021/12/05 10:49:16;;;;;;;10.35;8.13;;;;;;;20.88;47.95;100901.87;144992;562;6004;-88
2021/12/05 10:51:57;;;;;;;12.00;7.57;;;;;;;20.92;47.88;100905.34;144991;578;6000;-90
2021/12/05 10:54:26;;;;;;;10.13;7.37;;;;;;;20.88;47.95;100895.72;144991;581;6002;-90
2021/12/05 10:56:56;;;;;;;9.35;7.20;;;;;;;20.95;48.14;100895.66;144992;644;6002;-90
2021/12/05 10:59:36;;;;;;;10.18;7.85;;;;;;;20.48;47.58;100892.53;144992;688;6003;-90
2021/12/05 11:02:14;;;;;;;17.15;11.23;;;;;;;20.74;48.61;100898.50;144992;631;6002;-90
2021/12/05 11:04:46;;;;;;;17.50;13.65;;;;;;;20.75;48.73;100884.41;144992;648;6002;-87
2021/12/05 11:07:21;;;;;;;18.77;14.52;;;;;;;20.67;48.43;100881.00;144992;570;6002;-90
2021/12/05 11:09:57;;;;;;;15.40;12.25;;;;;;;20.63;48.78;100878.34;144992;610;6002;-89
2021/12/05 11:12:33;;;;;;;14.38;10.55;;;;;;;20.58;49.09;100877.50;144992;670;6002;-89
2021/12/05 11:15:06;;;;;;;12.32;10.25;;;;;;;20.60;49.27;100878.38;144992;622;6002;-91
2021/12/05 11:17:39;;;;;;;14.30;10.60;;;;;;;20.63;49.04;100874.81;144992;633;6002;-89
2021/12/05 11:20:11;;;;;;;15.07;12.70;;;;;;;20.69;48.79;100873.94;144992;673;6002;-90
2021/12/05 11:22:47;;;;;;;14.18;12.65;;;;;;;20.75;48.61;100877.37;144992;589;6002;-89
2021/12/05 11:25:20;;;;;;;14.85;12.15;;;;;;;20.76;48.41;100876.50;144992;630;6002;-87
2021/12/05 11:28:02;;;;;;;19.08;14.98;;;;;;;20.76;48.52;100876.50;144992;569;6002;-89
2021/12/05 11:30:36;;;;;;;17.10;14.32;;;;;;;20.72;48.61;100873.91;144992;611;6002;-90
2021/12/05 11:33:23;;;;;;;15.63;13.57;;;;;;;20.67;48.72;100870.44;144992;618;6002;-88
2021/12/05 11:36:00;;;;;;;12.32;11.02;;;;;;;20.51;47.62;100862.62;144991;615;6002;-89
2021/12/05 11:38:42;;;;;;;14.57;10.65;;;;;;;20.62;48.91;100852.84;144992;626;6002;-89
2021/12/05 11:41:14;;;;;;;15.13;12.80;;;;;;;20.69;48.63;100850.19;144992;577;6002;-88
2021/12/05 11:43:47;;;;;;;15.48;11.15;;;;;;;20.72;48.32;100852.78;144992;576;6002;-88
2021/12/05 11:46:44;;;;;;;14.68;11.02;;;;;;;20.81;48.37;100845.66;144992;589;6002;-90
2021/12/05 11:49:37;;;;;;;;;;;;;;;;;;;;;
2021/12/05 11:52:37;;;;;;;18.23;14.30;;;;;;;20.47;48.76;100840.69;144992;573;6005;-89
2021/12/05 11:55:44;;;;;;;15.45;11.68;;;;;;;20.65;48.52;100842.31;144992;569;6002;-80
2021/12/05 11:58:52;;;;;;;;;;;;;;;;;;;;;
2021/12/05 12:01:46;;;;;;;13.93;9.82;;;;;;;20.56;47.14;100823.91;144992;582;6004;-80
2021/12/05 12:04:50;;;;;;;13.75;9.90;;;;;;;20.71;48.20;100817.63;144992;617;6004;-89
2021/12/05 12:07:35;;;;;;;10.27;6.60;;;;;;;20.80;48.11;100811.38;144992;610;6002;-88
2021/12/05 12:10:32;;;;;;;9.80;7.40;;;;;;;20.90;47.65;100817.41;144992;677;6002;-88
2021/12/05 12:13:18;;;;;;;10.13;6.93;;;;;;;20.92;47.37;100803.34;144992;585;6004;-90
2021/12/05 12:15:57;;;;;;;8.93;6.18;;;;;;;20.91;47.67;100800.72;144991;567;6000;-93
2021/12/05 12:18:29;;;;;;;7.47;5.90;;;;;;;20.90;47.43;100801.59;144991;598;6002;-89
2021/12/05 12:20:58;;;;;;;8.25;4.80;;;;;;;20.91;47.55;100795.44;144992;563;6002;-91
2021/12/05 12:23:25;;;;;;;6.55;5.00;;;;;;;20.90;47.01;100806.87;144992;574;6002;-89
2021/12/05 12:25:56;;;;;;;7.20;5.20;;;;;;;20.86;46.97;100795.47;144992;694;6002;-90
2021/12/05 12:28:24;;;;;;;10.60;5.10;;;;;;;20.84;47.51;100786.72;144992;586;6002;-90
2021/12/05 12:31:21;;;;;;;6.37;4.85;;;;;;;20.81;46.99;100790.25;144993;691;6002;-90
2021/12/05 12:33:53;;;;;;;5.82;4.32;;;;;;;20.75;47.04;100785.03;144993;643;6004;-90
2021/12/05 12:36:35;;;;;;;5.95;4.22;;;;;;;20.70;47.11;100786.88;144993;586;6002;-89
2021/12/05 12:39:34;;;;;;;6.18;4.12;;;;;;;20.67;47.33;100780.75;144993;685;6002;-90
2021/12/05 12:42:23;;;;;;;7.15;4.75;;;;;;;20.54;47.69;100790.53;144993;565;6000;-89
2021/12/05 12:45:10;;;;;;;6.32;4.50;;;;;;;20.44;47.67;100797.62;144993;642;6002;-90
2021/12/05 12:47:46;;;;;;;8.32;5.53;;;;;;;20.12;48.33;100791.78;144993;663;6002;-88
2021/12/05 12:50:22;;;;;;;7.05;4.60;;;;;;;20.10;48.44;100788.28;144993;629;6002;-89
2021/12/05 12:53:05;;;;;;;7.65;5.03;;;;;;;20.11;48.44;100784.75;144993;577;6002;-90
2021/12/05 12:55:36;;;;;;;7.60;5.10;;;;;;;20.12;48.19;100781.25;144993;602;6002;-90
2021/12/05 12:58:06;;;;;;;7.18;5.20;;;;;;;20.06;48.23;100783.03;144993;598;6002;-90
2021/12/05 13:00:36;;;;;;;8.02;5.22;;;;;;;20.00;48.36;100772.56;144992;603;6002;-88
2021/12/05 13:03:15;;;;;;;8.25;4.70;;;;;;;19.79;47.73;100769.22;144992;700;6002;-89
2021/12/05 13:11:18;;;;;;;5.65;4.28;;;;;;;19.50;48.81;100756.22;144992;563;6002;-89
2021/12/05 13:13:57;;;;;;;5.62;3.97;;;;;;;19.47;48.49;100766.75;144992;650;6002;-89
2021/12/05 13:16:32;;;;;;;8.65;5.30;;;;;;;19.35;49.44;100768.59;144993;626;6002;-92
2021/12/05 13:19:08;;;;;;;5.93;4.47;;;;;;;19.08;49.47;100764.34;144993;566;6002;-87
2021/12/05 13:21:39;;;;;;;7.35;4.30;;;;;;;18.96;49.89;100764.38;144993;593;6002;-90
2021/12/05 13:24:31;;;;;;;10.27;5.80;;;;;;;18.37;52.94;100767.12;144993;570;6002;-87
2021/12/05 13:27:05;;;;;;;9.60;5.30;;;;;;;18.10;52.38;100766.31;144993;593;6002;-91
2021/12/05 13:29:34;;;;;;;6.80;4.62;;;;;;;18.11;52.49;100772.44;144993;647;6002;-87
2021/12/05 13:32:13;;;;;;;6.93;4.10;;;;;;;18.17;52.27;100779.47;144993;581;6002;-87
2021/12/05 13:34:50;;;;;;;7.80;3.90;;;;;;;18.24;52.44;100770.69;144993;569;6002;-88
2021/12/05 13:37:46;;;;;;;5.07;3.00;;;;;;;18.12;53.10;100772.44;144993;566;6002;-88
2021/12/05 13:40:20;;;;;;;5.75;3.40;;;;;;;18.09;52.38;100777.69;144993;635;6000;-89
2021/12/05 13:43:05;;;;;;;6.78;3.40;;;;;;;17.82;53.31;100765.41;144993;596;6002;-90
2021/12/05 13:45:44;;;;;;;5.95;3.42;;;;;;;17.79;53.44;100764.53;144993;638;6002;-89
2021/12/05 13:48:29;;;;;;;5.50;3.22;;;;;;;17.86;53.15;100771.53;144993;580;6002;-80
2021/12/05 13:51:25;;;;;;;5.12;2.90;;;;;;;17.70;53.69;100766.25;144993;569;6003;-89
2021/12/05 13:54:06;;;;;;;6.28;2.55;;;;;;;17.80;53.28;100761.00;144992;577;6002;-90
2021/12/05 13:57:10;;;;;;;9.02;3.30;;;;;;;17.75;52.28;100761.00;144993;585;6002;-89
2021/12/05 13:59:44;;;;;;;8.38;4.22;;;;;;;17.66;52.90;100763.66;144993;564;6002;-81
2021/12/05 14:02:13;;;;;;;6.32;4.43;;;;;;;17.25;54.03;100752.19;144993;593;6002;-87
2021/12/05 14:04:40;;;;;;;6.20;3.28;;;;;;;17.23;53.79;100751.31;144993;624;6002;-90
2021/12/05 14:07:09;;;;;;;6.37;3.20;;;;;;;17.19;53.97;100754.78;144993;570;6002;-90
2021/12/05 14:09:47;;;;;;;6.30;3.35;;;;;;;16.98;54.72;100747.72;144994;599;5002;-89
2021/12/05 14:12:29;;;;;;;5.85;2.78;;;;;;;16.89;54.96;100750.28;144994;563;5002;-89
2021/12/05 14:15:00;;;;;;;7.37;2.97;;;;;;;17.04;53.73;100743.38;144994;634;5002;-90
2021/12/05 14:17:40;;;;;;;11.27;6.30;;;;;;;16.80;54.88;100751.97;144994;569;5002;-90
2021/12/05 14:20:16;;;;;;;7.62;2.90;;;;;;;16.65;54.62;100746.66;144994;585;5002;-87
2021/12/05 14:22:46;;;;;;;5.68;3.58;;;;;;;16.63;54.76;100751.87;144994;569;5002;-90
2021/12/05 14:25:19;;;;;;;6.85;3.20;;;;;;;16.54;56.39;100754.44;144994;642;5002;-88
2021/12/05 14:27:49;;;;;;;6.72;2.83;;;;;;;16.62;54.66;100757.12;144994;582;5002;-89
2021/12/05 14:30:19;;;;;;;4.72;2.60;;;;;;;16.52;55.18;100761.44;144994;583;5002;-89
2021/12/05 14:32:48;;;;;;;6.45;3.03;;;;;;;16.58;55.24;100760.59;144994;571;5002;-89
2021/12/05 14:35:21;;;;;;;9.00;2.95;;;;;;;16.66;55.08;100764.12;144994;575;5002;-89
2021/12/05 14:37:51;;;;;;;9.43;5.20;;;;;;;16.74;54.74;100764.19;144994;603;5002;-92
2021/12/05 14:40:22;;;;;;;9.68;6.18;;;;;;;16.79;55.08;100771.19;144994;573;5002;-89
2021/12/05 14:42:50;;;;;;;8.98;6.37;;;;;;;16.86;54.82;100769.50;144994;577;5002;-89
2021/12/05 14:45:21;;;;;;;11.93;8.07;;;;;;;16.92;54.50;100771.28;144994;581;5002;-91
2021/12/05 14:47:49;;;;;;;12.15;9.05;;;;;;;16.94;55.22;100777.41;144994;617;5002;-89
2021/12/05 14:50:20;;;;;;;7.80;6.30;;;;;;;16.95;54.83;100776.53;144994;573;5003;-89
2021/12/05 14:52:55;;;;;;;8.65;5.62;;;;;;;16.94;55.23;100778.31;144994;580;5002;-91
2021/12/05 14:55:23;;;;;;;7.75;5.85;;;;;;;16.92;55.32;100785.25;144994;577;5002;-90
2021/12/05 14:57:53;;;;;;;6.93;5.07;;;;;;;16.86;54.88;100786.13;144994;589;5003;-91
2021/12/05 15:00:25;;;;;;;7.07;4.90;;;;;;;16.87;54.74;100792.25;144994;597;5002;-90
2021/12/05 15:03:11;;;;;;;8.88;4.60;;;;;;;16.84;55.53;100794.81;144994;723;5002;-91
2021/12/05 15:05:38;;;;;;;8.35;5.18;;;;;;;16.81;55.51;100792.16;144994;640;5002;-91
2021/12/05 15:08:08;;;;;;;9.88;5.28;;;;;;;16.79;55.58;100788.66;144994;567;5002;-90
2021/12/05 15:10:36;;;;;;;7.82;5.65;;;;;;;16.74;55.29;100793.88;144994;623;5002;-89
2021/12/05 15:13:03;;;;;;;9.68;6.57;;;;;;;16.72;55.58;100790.38;144994;634;5002;-88
2021/12/05 15:15:30;;;;;;;9.95;6.57;;;;;;;16.66;55.32;100791.22;144994;593;5002;-91
2021/12/05 15:17:58;;;;;;;11.12;6.55;;;;;;;16.65;55.55;100791.22;144994;641;5002;-92
2021/12/05 15:20:29;;;;;;;11.90;7.28;;;;;;;16.60;56.27;100793.78;144994;579;5002;-91
2021/12/05 15:23:02;;;;;;;11.15;8.48;;;;;;;16.57;55.86;100803.41;144994;663;5002;-90
2021/12/05 15:25:30;;;;;;;11.48;8.75;;;;;;;16.50;56.51;100802.47;144994;577;5002;-89
2021/12/05 15:27:58;;;;;;;12.13;8.75;;;;;;;16.46;56.45;100805.94;144994;576;5002;-89
2021/12/05 15:30:29;;;;;;;13.98;9.02;;;;;;;16.43;56.77;100811.16;144994;599;5002;-90
2021/12/05 15:33:03;;;;;;;13.18;8.40;;;;;;;16.09;59.01;100805.66;144994;600;5002;-90
2021/12/05 15:35:31;;;;;;;14.23;8.02;;;;;;;16.08;57.95;100807.41;144994;655;5002;-89
2021/12/05 15:38:06;;;;;;;13.93;8.27;;;;;;;16.12;57.07;100808.31;144994;576;5002;-88
2021/12/05 15:40:38;;;;;;;11.45;7.82;;;;;;;16.07;57.64;100805.63;144994;584;5002;-90
2021/12/05 15:43:08;;;;;;;10.35;8.00;;;;;;;16.04;57.16;100810.84;144994;575;5002;-89
2021/12/05 15:45:38;;;;;;;9.43;7.40;;;;;;;15.89;57.90;100816.84;144994;571;5002;-88
2021/12/05 15:48:05;;;;;;;11.88;8.77;;;;;;;15.85;58.10;100822.03;144994;577;5002;-90
2021/12/05 15:50:35;;;;;;;15.20;12.02;;;;;;;15.72;57.98;100821.00;144994;586;5002;-88
2021/12/05 15:53:05;;;;;;;12.27;8.52;;;;;;;15.53;60.15;100831.25;144994;689;5002;-92
2021/12/05 15:55:41;;;;;;;12.68;8.75;;;;;;;15.51;60.37;100832.09;144994;630;5002;-88
2021/12/05 15:58:23;;;;;;;9.70;7.12;;;;;;;15.28;60.09;100830.09;144994;578;5002;-88
2021/12/05 16:01:14;;;;;;;10.27;8.40;;;;;;;15.37;58.81;100835.44;144994;614;5002;-88
2021/12/05 16:03:52;;;;;;;14.57;8.00;;;;;;;15.10;61.16;100835.97;144994;667;5002;-89
2021/12/05 16:06:21;;;;;;;9.50;7.15;;;;;;;14.76;62.74;100839.84;144994;569;5002;-89
2021/12/05 16:08:49;;;;;;;8.43;7.00;;;;;;;14.79;60.94;100842.50;144994;613;5002;-89
2021/12/05 16:11:23;;;;;;;9.77;7.87;;;;;;;14.89;60.27;100841.78;144994;640;5002;-90
2021/12/05 16:13:52;;;;;;;8.30;6.85;;;;;;;14.92;60.28;100841.84;144994;635;5002;-90
2021/12/05 16:16:25;;;;;;;9.55;7.72;;;;;;;14.90;60.56;100859.22;144994;570;5002;-92
2021/12/05 16:18:55;;;;;;;13.52;9.02;;;;;;;14.67;61.79;100849.31;144994;579;5002;-90
2021/12/05 16:21:30;;;;;;;13.68;9.13;;;;;;;14.69;60.63;100854.56;144994;657;5002;-89
2021/12/05 16:24:08;;;;;;;10.10;8.40;;;;;;;14.20;63.73;100862.44;144994;608;5002;-88
2021/12/05 16:26:36;;;;;;;14.30;9.73;;;;;;;14.59;60.91;100866.56;144994;564;5002;-89
2021/12/05 16:29:24;;;;;;;12.40;9.75;;;;;;;14.51;61.41;100861.22;144994;592;5002;-89
2021/12/05 16:31:57;;;;;;;15.75;10.65;;;;;;;14.55;61.45;100863.87;144994;589;5004;-91
2021/12/05 16:34:27;;;;;;;15.30;10.90;;;;;;;14.29;63.44;100870.44;144994;579;5004;-90
2021/12/05 16:37:05;;;;;;;16.55;12.10;;;;;;;14.43;61.80;100870.66;144994;571;5004;-88
2021/12/05 16:39:57;;;;;;;17.05;12.95;;;;;;;14.44;62.01;100858.47;144994;604;5004;-90
2021/12/05 16:42:24;;;;;;;19.33;12.55;;;;;;;14.44;63.20;100864.56;144994;634;5002;-89
2021/12/05 16:44:58;;;;;;;19.42;15.07;;;;;;;14.60;60.83;100854.41;144994;571;5002;-90
2021/12/05 16:47:29;;;;;;;21.27;16.42;;;;;;;14.64;60.80;100864.06;144994;572;5002;-88
2021/12/05 16:49:58;;;;;;;22.60;16.02;;;;;;;14.68;60.80;100860.63;144994;564;5002;-87
2021/12/05 16:52:37;;;;;;;24.05;17.20;;;;;;;14.75;60.38;100866.84;144994;610;5002;-92
2021/12/05 16:55:22;;;;;;;23.90;17.52;;;;;;;14.70;60.73;100861.56;144994;597;5002;-89
2021/12/05 16:57:56;;;;;;;24.40;17.77;;;;;;;14.64;60.65;100861.44;144994;582;5002;-89
2021/12/05 17:00:26;;;;;;;25.55;17.92;;;;;;;14.49;61.55;100869.88;144994;577;5002;-89
2021/12/05 17:02:59;;;;;;;24.73;17.77;;;;;;;14.47;61.49;100869.84;144994;604;5002;-91
2021/12/05 17:05:44;;;;;;;25.85;17.40;;;;;;;14.58;61.15;100879.59;144994;700;5002;-89
2021/12/05 17:08:17;;;;;;;27.80;17.40;;;;;;;14.66;60.92;100875.41;144994;627;5002;-91
2021/12/05 17:10:56;;;;;;;25.55;18.67;;;;;;;14.69;60.97;100875.47;144994;585;5002;-89
2021/12/05 17:13:32;;;;;;;27.48;18.23;;;;;;;14.69;60.45;100872.84;144994;612;5002;-89
2021/12/05 17:16:14;;;;;;;24.92;18.30;;;;;;;14.63;60.92;100877.97;144994;640;5002;-90
2021/12/05 17:18:58;;;;;;;27.30;18.52;;;;;;;14.66;60.78;100872.78;144994;572;5002;-89
2021/12/05 17:21:47;;;;;;;27.10;18.83;;;;;;;14.71;60.78;100876.34;144994;629;5002;-88
2021/12/05 17:24:23;;;;;;;26.98;19.00;;;;;;;14.68;60.67;100877.19;144994;587;5002;-90